首页
METAR-TAF:

METAR-TAF

机场 :

Chièvres, 比利时

纬度: 50-34N, 经度: 003-50E, 海拔: 60米

当前天气观测

该预报发布于17分钟前的08:52 UTC
风速10节,风向南转西南
温度 13°C
湿度 88%
气压 1010 hPa
能见度10公里或以上

METAR: EBCV 170852Z AUTO 21010KT 9999 FEW010/// 13/11 Q1010 BLU

时间: 11:09 (09:09 UTC)

预报

该预报发布于3小时和28分钟前的05:41 UTC
预报有效从17日的 07点(UTC)到 17日的 16点(UTC)
风速12节,风向南转西南
能見度: 8000
散云层高于1500英尺
多云层高于2500英尺
几率 30% :
短暂存在
从 17日的 07点(UTC)到 17日的 09点(UTC)
风速15节,风向南转西南
能見度: 4000
多云层高于600英尺
阴天层高于1500英尺
小雨, 小毛毛雨
成为
从 17日的 08点(UTC)到 17日的 10点(UTC)
风速10节,风向西南
能见度10公里或以上
少量云层高于2200英尺
散云层高于3000英尺
短暂存在
从 17日的 12点(UTC)到 17日的 16点(UTC)
风速15节,风向南转西南,有时为25节阵风
能見度: 5000
散云层高于1800英尺
多云层高于2200英尺
小阵雨

TAF: EBCV 170541Z 1707/1716 21012KT 8000 SCT015 BKN025 PROB30 TEMPO 1707/1709 21015KT 4000 -RA -DZ BKN006 OVC015 BECMG 1708/1710 23010KT 9999 NSW FEW022 SCT030 TEMPO 1712/1716 21015G25KT 5000 -SHRA SCT018 BKN022 BY EBWM

超过4000个机场的气象观测和天气预报(METAR&TAF报告)。

可查询的气象台以黄色和红色小点在地图上表示。

将鼠标移到小点上方,可查看气象台名称。

然后点击查看天气观测和预报。

如需切换地图:点击带黑十字的绿色按钮放大地图;点击带横线的绿色按钮缩小地图;或者点击绿色箭头查看邻近地区的地图。


METAR-TAF: